createdAt,value
2018-11-12T00:01:52.475Z,1.50
2018-11-12T00:04:22.967Z,2.23
2018-11-12T00:06:53.459Z,1.30
2018-11-12T00:09:23.814Z,1.63
2018-11-12T00:11:54.559Z,1.17
2018-11-12T00:14:24.979Z,1.53
2018-11-12T00:16:55.450Z,1.90
2018-11-12T00:19:25.807Z,1.23
2018-11-12T00:21:56.029Z,1.20
2018-11-12T00:24:26.355Z,1.23
2018-11-12T00:26:57.302Z,1.27
2018-11-12T00:29:27.502Z,1.27
2018-11-12T00:31:57.706Z,1.30
2018-11-12T00:34:27.944Z,1.30
2018-11-12T00:36:58.412Z,1.17
2018-11-12T00:39:28.627Z,1.20
2018-11-12T00:41:59.380Z,1.23
2018-11-12T00:44:29.684Z,1.30
2018-11-12T00:47:00.084Z,1.13
2018-11-12T00:49:30.649Z,1.40
2018-11-12T00:52:00.899Z,1.37
2018-11-12T00:54:31.297Z,1.20
2018-11-12T00:57:01.621Z,1.17
2018-11-12T00:59:32.382Z,1.53
2018-11-12T01:02:02.574Z,1.20
2018-11-12T01:04:33.036Z,1.23
2018-11-12T01:07:03.332Z,1.10
2018-11-12T01:09:33.455Z,1.20
2018-11-12T01:12:03.635Z,1.07
2018-11-12T01:14:33.989Z,1.63
2018-11-12T01:17:04.359Z,1.20
2018-11-12T01:19:34.863Z,0.97
2018-11-12T01:22:05.144Z,1.00
2018-11-12T01:24:35.404Z,1.33
2018-11-12T01:27:05.830Z,0.93
2018-11-12T01:29:36.066Z,1.60
2018-11-12T01:32:06.599Z,1.20
2018-11-12T01:34:37.035Z,1.13
2018-11-12T01:37:07.700Z,1.00
2018-11-12T01:39:38.116Z,1.40
2018-11-12T01:42:09.347Z,1.20
2018-11-12T01:44:40.140Z,1.57
2018-11-12T01:47:10.670Z,1.10
2018-11-12T01:49:40.963Z,1.03
2018-11-12T01:52:11.421Z,1.17
2018-11-12T01:54:41.745Z,0.80
2018-11-12T01:57:12.161Z,1.10
2018-11-12T01:59:42.744Z,1.10
2018-11-12T02:02:12.972Z,0.80
2018-11-12T02:04:43.190Z,1.30
2018-11-12T02:07:14.357Z,1.43
2018-11-12T02:09:45.317Z,1.20
2018-11-12T02:12:15.557Z,1.13
2018-11-12T02:14:46.161Z,1.10
2018-11-12T02:17:16.620Z,0.90
2018-11-12T02:19:46.978Z,1.07
2018-11-12T02:22:17.333Z,1.00
2018-11-12T02:24:48.052Z,1.10
2018-11-12T02:27:18.397Z,1.10
2018-11-12T02:29:48.702Z,1.07
2018-11-12T02:32:18.990Z,0.90
2018-11-12T02:34:49.440Z,1.10
2018-11-12T02:37:19.851Z,0.90
2018-11-12T02:39:50.134Z,1.07
2018-11-12T02:42:20.487Z,1.20
2018-11-12T02:44:50.705Z,1.00
2018-11-12T02:47:21.247Z,0.90
2018-11-12T02:49:51.651Z,0.90
2018-11-12T02:52:22.066Z,0.90
2018-11-12T02:54:52.443Z,0.90
2018-11-12T02:57:22.870Z,0.80
2018-11-12T02:59:53.348Z,1.20
2018-11-12T03:02:23.984Z,0.80
2018-11-12T03:04:54.143Z,1.17
2018-11-12T03:07:24.649Z,1.40
2018-11-12T03:09:54.999Z,0.90
2018-11-12T03:12:25.387Z,0.80
2018-11-12T03:14:55.995Z,0.93
2018-11-12T03:17:26.250Z,1.03
2018-11-12T03:19:56.576Z,1.10
2018-11-12T03:22:27.237Z,1.10
2018-11-12T03:24:57.585Z,0.80
2018-11-12T03:27:28.326Z,1.00
2018-11-12T03:29:58.572Z,1.33
2018-11-12T03:32:29.107Z,0.90
2018-11-12T03:34:59.631Z,0.70
2018-11-12T03:37:29.920Z,1.33
2018-11-12T03:40:00.307Z,0.90
2018-11-12T03:42:30.998Z,0.90
2018-11-12T03:45:01.278Z,0.90
2018-11-12T03:47:31.579Z,0.90
2018-11-12T03:50:01.956Z,0.90
2018-11-12T03:52:32.250Z,1.23
2018-11-12T03:55:02.471Z,1.10
2018-11-12T03:57:33.207Z,2.80
2018-11-12T04:00:03.657Z,2.30
2018-11-12T04:02:33.899Z,1.20
2018-11-12T04:05:04.335Z,1.30
2018-11-12T04:07:34.616Z,1.13
2018-11-12T04:10:05.997Z,1.20
2018-11-12T04:12:36.497Z,1.50
2018-11-12T04:15:09.434Z,1.60
2018-11-12T04:17:39.778Z,1.37
2018-11-12T04:20:12.900Z,1.83
2018-11-12T04:22:47.149Z,1.67
2018-11-12T04:25:17.431Z,2.07
2018-11-12T04:27:48.127Z,2.23
2018-11-12T04:30:18.442Z,1.63
2018-11-12T04:32:48.801Z,2.00
2018-11-12T04:35:20.195Z,1.87
2018-11-12T04:37:50.342Z,2.63
2018-11-12T04:40:20.836Z,1.40
2018-11-12T04:42:51.417Z,2.43
2018-11-12T04:45:23.021Z,1.90
2018-11-12T04:47:54.104Z,1.70
2018-11-12T04:50:27.619Z,2.07
2018-11-12T04:52:57.967Z,1.53
2018-11-12T04:55:28.428Z,1.57
2018-11-12T04:57:58.815Z,1.60
2018-11-12T05:00:29.718Z,4.80
2018-11-12T05:02:59.961Z,2.43
2018-11-12T05:05:30.371Z,2.07
2018-11-12T05:08:00.682Z,2.50
2018-11-12T05:10:31.021Z,2.43
2018-11-12T05:13:01.686Z,2.60
2018-11-12T05:15:32.499Z,2.73
2018-11-12T05:18:03.136Z,2.50
2018-11-12T05:20:34.063Z,2.60
2018-11-12T05:23:04.383Z,3.50
2018-11-12T05:25:35.668Z,2.50
2018-11-12T05:28:06.092Z,2.00
2018-11-12T05:30:36.575Z,3.50
2018-11-12T05:33:07.056Z,3.47
2018-11-12T05:35:37.656Z,5.10
2018-11-12T05:38:08.314Z,5.43
2018-11-12T05:40:38.572Z,5.57
2018-11-12T05:43:08.921Z,4.50
2018-11-12T05:45:39.499Z,3.60
2018-11-12T05:48:10.179Z,3.30
2018-11-12T05:50:40.548Z,3.50
2018-11-12T05:53:11.169Z,2.90
2018-11-12T05:55:44.566Z,3.00
2018-11-12T05:58:14.808Z,2.00
2018-11-12T06:00:45.049Z,2.40
2018-11-12T06:03:15.345Z,1.83
2018-11-12T06:05:45.703Z,2.10
2018-11-12T06:08:16.196Z,2.80
2018-11-12T06:10:46.508Z,2.17
2018-11-12T06:13:16.953Z,2.23
2018-11-12T06:15:47.210Z,2.67
2018-11-12T06:18:20.132Z,2.90
2018-11-12T06:20:50.650Z,3.20
2018-11-12T06:23:21.011Z,2.87
2018-11-12T06:25:51.398Z,2.50
2018-11-12T06:28:28.021Z,2.53
2018-11-12T06:30:58.531Z,2.10
2018-11-12T06:33:28.863Z,2.57
2018-11-12T06:35:59.127Z,3.07
2018-11-12T06:38:29.498Z,2.33
2018-11-12T06:41:00.849Z,2.90
2018-11-12T06:43:31.132Z,3.10
2018-11-12T06:46:02.473Z,2.13
2018-11-12T06:48:32.628Z,2.30
2018-11-12T06:51:03.114Z,2.53
2018-11-12T06:53:33.439Z,3.23
2018-11-12T06:56:03.866Z,5.80
2018-11-12T06:58:33.985Z,4.43
2018-11-12T07:01:04.360Z,4.80
2018-11-12T07:03:34.604Z,7.10
2018-11-12T07:06:04.799Z,5.50
2018-11-12T07:08:35.090Z,4.57
2018-11-12T07:11:05.438Z,5.07
2018-11-12T07:13:35.736Z,6.20
2018-11-12T07:16:06.078Z,5.97
2018-11-12T07:18:37.754Z,5.83
2018-11-12T07:21:08.528Z,5.70
2018-11-12T07:23:39.754Z,5.47
2018-11-12T07:26:10.027Z,5.57
2018-11-12T07:28:41.141Z,4.00
2018-11-12T07:31:12.302Z,6.20
2018-11-12T07:33:42.938Z,4.37
2018-11-12T07:36:13.271Z,3.80
2018-11-12T07:38:44.525Z,4.37
2018-11-12T07:41:15.080Z,4.03
2018-11-12T07:43:45.916Z,4.30
2018-11-12T07:46:16.161Z,5.27
2018-11-12T07:48:46.366Z,6.97
2018-11-12T07:51:25.163Z,3.60
2018-11-12T07:53:55.540Z,4.47
2018-11-12T07:56:25.980Z,3.40
2018-11-12T07:58:56.143Z,4.10
2018-11-12T08:01:26.394Z,3.73
2018-11-12T08:03:56.600Z,3.93
2018-11-12T08:06:26.932Z,3.93
2018-11-12T08:08:57.319Z,4.13
2018-11-12T08:11:27.726Z,3.70
2018-11-12T08:13:58.008Z,4.07
2018-11-12T08:16:29.634Z,3.50
2018-11-12T08:19:00.226Z,4.00
2018-11-12T08:21:30.448Z,5.10
2018-11-12T08:24:00.844Z,5.50
2018-11-12T08:26:31.092Z,6.53
2018-11-12T08:29:01.345Z,5.43
2018-11-12T08:31:32.147Z,6.80
2018-11-12T08:34:02.383Z,6.47
2018-11-12T08:36:33.237Z,5.77
2018-11-12T08:39:03.546Z,4.50
2018-11-12T08:41:34.125Z,4.00
2018-11-12T08:44:04.438Z,6.20
2018-11-12T08:46:34.825Z,5.43
2018-11-12T08:49:05.172Z,7.27
2018-11-12T08:51:35.540Z,8.80
2018-11-12T08:54:06.081Z,6.80
2018-11-12T08:56:36.468Z,4.27
2018-11-12T08:59:06.753Z,3.53
2018-11-12T09:01:37.217Z,3.03
2018-11-12T09:04:07.579Z,2.80
2018-11-12T09:06:38.380Z,2.60
2018-11-12T09:09:13.219Z,3.50
2018-11-12T09:11:43.653Z,3.37
2018-11-12T09:14:14.044Z,4.10
2018-11-12T09:16:44.211Z,3.63
2018-11-12T09:19:14.738Z,3.60
2018-11-12T09:21:45.031Z,2.57
2018-11-12T09:24:15.379Z,2.93
2018-11-12T09:26:55.091Z,2.33
2018-11-12T09:29:25.425Z,2.50
2018-11-12T09:31:55.852Z,2.73
2018-11-12T09:34:26.058Z,3.17
2018-11-12T09:36:56.384Z,3.37
2018-11-12T09:39:26.490Z,2.17
2018-11-12T09:41:59.631Z,2.97
2018-11-12T09:44:29.857Z,2.73
2018-11-12T09:47:00.109Z,2.43
2018-11-12T09:49:30.406Z,4.70
2018-11-12T09:52:00.714Z,3.67
2018-11-12T09:54:31.155Z,3.23
2018-11-12T09:57:07.593Z,2.70
2018-11-12T09:59:37.847Z,3.23
2018-11-12T10:02:09.098Z,2.67
2018-11-12T10:04:39.931Z,2.63
2018-11-12T10:07:10.606Z,3.10
2018-11-12T10:09:41.071Z,2.17
2018-11-12T10:14:51.040Z,2.50
2018-11-12T10:17:21.712Z,2.80
2018-11-12T10:19:49.037Z,3.07
2018-11-12T10:22:19.190Z,2.97
2018-11-12T10:24:49.395Z,3.13
2018-11-12T10:27:19.740Z,2.37
2018-11-12T10:29:49.975Z,3.30
2018-11-12T10:32:20.267Z,3.30
2018-11-12T10:34:50.788Z,3.47
2018-11-12T10:37:20.940Z,4.37
2018-11-12T10:39:51.328Z,4.90
2018-11-12T10:42:21.525Z,4.60
2018-11-12T10:44:51.821Z,4.67
2018-11-12T10:47:22.301Z,4.00
2018-11-12T10:49:53.319Z,5.73
2018-11-12T10:52:23.659Z,5.07
2018-11-12T10:55:04.889Z,5.17
2018-11-12T10:57:25.451Z,6.37
2018-11-12T10:59:55.681Z,6.63
2018-11-12T11:02:30.929Z,8.40
2018-11-12T11:05:02.635Z,7.87
2018-11-12T11:07:32.876Z,9.40
2018-11-12T11:10:03.663Z,8.50
2018-11-12T11:12:33.970Z,7.57
2018-11-12T11:15:04.542Z,7.57
2018-11-12T11:17:34.906Z,7.90
2018-11-12T11:20:05.441Z,8.30
2018-11-12T11:22:35.632Z,7.63
2018-11-12T11:25:06.048Z,8.53
2018-11-12T11:27:36.452Z,8.47
2018-11-12T11:30:10.073Z,10.13
2018-11-12T11:32:40.362Z,9.07
2018-11-12T11:35:11.968Z,12.33
2018-11-12T11:37:42.521Z,12.70
2018-11-12T11:40:19.823Z,11.33
2018-11-12T11:42:50.129Z,12.33
2018-11-12T11:45:23.456Z,11.30
2018-11-12T11:47:54.258Z,10.83
2018-11-12T11:50:26.083Z,10.80
2018-11-12T11:52:56.635Z,10.90
2018-11-12T11:55:26.975Z,10.67
2018-11-12T11:57:57.395Z,10.30
2018-11-12T12:00:28.885Z,8.20
2018-11-12T12:03:00.102Z,9.17
2018-11-12T12:05:30.543Z,9.13
2018-11-12T12:08:00.638Z,8.37
2018-11-12T12:10:30.831Z,9.70
2018-11-12T12:13:01.087Z,9.13
2018-11-12T12:15:31.236Z,8.70
2018-11-12T12:18:01.680Z,9.37
2018-11-12T12:20:32.068Z,9.67
2018-11-12T12:23:02.222Z,8.83
2018-11-12T12:25:32.477Z,9.10
2018-11-12T12:28:02.668Z,8.63
2018-11-12T12:30:32.882Z,10.10
2018-11-12T12:33:03.091Z,9.20
2018-11-12T12:35:33.417Z,8.43
2018-11-12T12:38:03.646Z,10.17
2018-11-12T12:40:33.886Z,8.90
2018-11-12T12:43:04.145Z,9.23
2018-11-12T12:45:34.455Z,8.90
2018-11-12T12:48:04.670Z,8.90
2018-11-12T12:50:34.935Z,9.53
2018-11-12T12:53:05.332Z,8.70
2018-11-12T12:55:35.552Z,10.40
2018-11-12T12:58:05.866Z,9.33
2018-11-12T13:00:35.959Z,9.23
2018-11-12T13:03:06.804Z,10.67
2018-11-12T13:05:36.948Z,12.00
2018-11-12T13:08:07.591Z,12.03
2018-11-12T13:10:38.193Z,10.40
2018-11-12T13:13:09.569Z,13.67
2018-11-12T13:15:39.825Z,14.87
2018-11-12T13:18:10.345Z,15.00
2018-11-12T13:20:40.707Z,13.10
2018-11-12T13:23:11.247Z,14.60
2018-11-12T13:25:41.731Z,14.87
2018-11-12T13:28:11.936Z,13.90
2018-11-12T13:30:43.190Z,14.37
2018-11-12T13:33:13.402Z,14.87
2018-11-12T13:35:43.638Z,14.60
2018-11-12T13:38:13.852Z,16.40
2018-11-12T13:40:44.150Z,16.57
2018-11-12T13:43:14.350Z,16.00
2018-11-12T13:45:44.587Z,17.27
2018-11-12T13:48:14.822Z,17.80
2018-11-12T13:50:45.823Z,18.00
2018-11-12T13:53:16.538Z,16.97
2018-11-12T13:55:47.254Z,18.23
2018-11-12T13:58:17.948Z,16.93
2018-11-12T14:00:48.257Z,20.23
2018-11-12T14:03:18.878Z,17.37
2018-11-12T14:05:49.421Z,17.30
2018-11-12T14:08:19.852Z,16.27
2018-11-12T14:10:52.134Z,16.00
2018-11-12T14:13:22.673Z,15.20
2018-11-12T14:15:54.343Z,17.27
2018-11-12T14:18:25.497Z,17.10
2018-11-12T14:20:56.378Z,17.17
2018-11-12T14:23:27.084Z,15.67
2018-11-12T14:25:58.687Z,16.27
2018-11-12T14:28:29.886Z,15.60
2018-11-12T14:31:00.752Z,15.43
2018-11-12T14:33:31.273Z,14.30
2018-11-12T14:36:01.972Z,13.10
2018-11-12T14:38:32.277Z,14.43
2018-11-12T14:41:02.763Z,13.63
2018-11-12T14:43:39.104Z,14.37
2018-11-12T14:46:09.362Z,13.73
2018-11-12T14:48:39.802Z,13.40
2018-11-12T14:51:10.133Z,12.50
2018-11-12T14:53:40.413Z,12.50
2018-11-12T14:56:10.607Z,12.60
2018-11-12T14:58:47.169Z,11.40
2018-11-12T15:01:18.822Z,11.20
2018-11-12T15:03:50.827Z,9.40
2018-11-12T15:06:21.008Z,9.70
2018-11-12T15:08:51.318Z,9.90
2018-11-12T15:11:21.441Z,7.97
2018-11-12T15:13:52.513Z,10.43
2018-11-12T15:16:23.159Z,8.80
2018-11-12T15:18:53.520Z,7.83
2018-11-12T15:21:23.967Z,9.33
2018-11-12T15:23:54.591Z,8.70
2018-11-12T15:26:24.884Z,7.80
2018-11-12T15:28:55.353Z,9.40
2018-11-12T15:31:25.755Z,8.77
2018-11-12T15:33:56.279Z,9.40
2018-11-12T15:36:26.788Z,9.53
2018-11-12T15:38:57.029Z,8.97
2018-11-12T15:41:28.080Z,10.53
2018-11-12T15:43:58.294Z,10.30
2018-11-12T15:46:28.606Z,10.00
2018-11-12T15:48:59.263Z,9.87
2018-11-12T15:51:30.047Z,9.00
2018-11-12T15:54:00.310Z,10.40
2018-11-12T15:56:30.556Z,10.23
2018-11-12T15:59:00.923Z,11.57
2018-11-12T16:01:31.409Z,10.10
2018-11-12T16:04:01.747Z,9.10
2018-11-12T16:06:32.368Z,7.63
2018-11-12T16:09:03.145Z,9.37
2018-11-12T16:11:33.464Z,10.27
2018-11-12T16:14:03.867Z,8.50
2018-11-12T16:16:34.456Z,9.30
2018-11-12T16:19:05.265Z,9.80
2018-11-12T16:21:36.903Z,8.53
2018-11-12T16:24:07.755Z,9.67
2018-11-12T16:26:39.278Z,11.07
2018-11-12T16:29:09.633Z,10.30
2018-11-12T16:31:39.890Z,10.63
2018-11-12T16:34:10.062Z,11.47
2018-11-12T16:36:40.332Z,12.50
2018-11-12T16:39:12.169Z,12.40
2018-11-12T16:41:42.392Z,12.37
2018-11-12T16:44:12.598Z,12.03
2018-11-12T16:46:42.806Z,12.43
2018-11-12T16:49:12.934Z,12.20
2018-11-12T16:51:43.300Z,12.20
2018-11-12T16:54:13.433Z,13.33
2018-11-12T16:56:43.674Z,12.53
2018-11-12T16:59:14.205Z,12.30
2018-11-12T17:01:44.700Z,12.90
2018-11-12T17:04:15.182Z,12.97
2018-11-12T17:06:45.481Z,12.13
2018-11-12T17:09:15.753Z,13.47
2018-11-12T17:11:45.961Z,12.70
2018-11-12T17:14:16.197Z,11.77
2018-11-12T17:16:46.691Z,12.43
2018-11-12T17:19:16.880Z,14.70
2018-11-12T17:21:47.706Z,14.30
2018-11-12T17:24:17.894Z,15.03
2018-11-12T17:26:48.126Z,12.57
2018-11-12T17:29:18.352Z,12.60
2018-11-12T17:31:48.827Z,14.70
2018-11-12T17:34:18.933Z,13.70
2018-11-12T17:36:49.214Z,14.03
2018-11-12T17:39:19.436Z,13.03
2018-11-12T17:41:49.661Z,15.03
2018-11-12T17:44:19.821Z,15.73
2018-11-12T17:46:50.030Z,16.40
2018-11-12T17:49:20.294Z,17.13
2018-11-12T17:51:50.471Z,17.10
2018-11-12T17:54:20.652Z,15.43
2018-11-12T17:56:50.828Z,16.57
2018-11-12T17:59:20.988Z,15.30
2018-11-12T18:01:51.315Z,16.87
2018-11-12T18:04:21.752Z,15.70
2018-11-12T18:06:52.013Z,16.40
2018-11-12T18:09:22.345Z,16.27
2018-11-12T18:11:53.523Z,15.90
2018-11-12T18:14:23.824Z,15.70
2018-11-12T18:16:54.119Z,15.37
2018-11-12T18:19:24.504Z,15.87
2018-11-12T18:21:54.809Z,17.20
2018-11-12T18:24:25.355Z,15.40
2018-11-12T18:26:56.430Z,15.43
2018-11-12T18:29:26.954Z,15.43
2018-11-12T18:31:59.043Z,16.50
2018-11-12T18:34:29.421Z,15.73
2018-11-12T18:37:00.355Z,17.63
2018-11-12T18:39:32.489Z,16.20
2018-11-12T18:42:03.179Z,18.03
2018-11-12T18:44:35.012Z,17.57
2018-11-12T18:47:06.664Z,16.00
2018-11-12T18:49:37.512Z,16.53
2018-11-12T18:52:08.459Z,19.17
2018-11-12T18:54:39.573Z,17.43
2018-11-12T18:57:11.358Z,16.00
2018-11-12T18:59:41.587Z,15.60
2018-11-12T19:02:12.019Z,16.57
2018-11-12T19:04:42.311Z,16.43
2018-11-12T19:07:12.625Z,18.27
2018-11-12T19:09:42.909Z,16.90
2018-11-12T19:12:14.207Z,17.63
2018-11-12T19:14:46.025Z,18.57
2018-11-12T19:17:17.502Z,17.90
2018-11-12T19:19:47.897Z,16.80
2018-11-12T19:22:18.274Z,18.70
2018-11-12T19:24:49.053Z,21.37
2018-11-12T19:27:19.468Z,21.10
2018-11-12T19:29:50.122Z,20.03
2018-11-12T19:32:21.056Z,20.50
2018-11-12T19:34:51.528Z,19.70
2018-11-12T19:37:22.926Z,18.10
2018-11-12T19:39:53.348Z,20.40
2018-11-12T19:42:23.923Z,19.17
2018-11-12T19:44:54.062Z,19.37
2018-11-12T19:47:24.313Z,21.77
2018-11-12T19:49:54.538Z,20.20
2018-11-12T19:52:25.094Z,20.13
2018-11-12T19:54:55.309Z,23.00
2018-11-12T19:57:26.338Z,21.80
2018-11-12T19:59:56.559Z,23.10
2018-11-12T20:02:26.949Z,19.57
2018-11-12T20:05:03.392Z,19.00
2018-11-12T20:07:33.636Z,20.20
2018-11-12T20:10:04.604Z,21.33
2018-11-12T20:12:37.382Z,21.07
2018-11-12T20:15:08.900Z,18.03
2018-11-12T20:17:39.199Z,20.83
2018-11-12T20:20:17.863Z,24.87
2018-11-12T20:22:48.682Z,24.37
2018-11-12T20:25:19.740Z,21.10
2018-11-12T20:27:50.911Z,17.90
2018-11-12T20:30:30.481Z,19.70
2018-11-12T20:33:01.602Z,19.80
2018-11-12T20:35:31.960Z,20.40
2018-11-12T20:38:02.204Z,22.17
2018-11-12T20:40:32.426Z,21.90
2018-11-12T20:43:02.630Z,19.83
2018-11-12T20:45:32.789Z,19.50
2018-11-12T20:48:03.189Z,21.30
2018-11-12T20:50:33.353Z,18.97
2018-11-12T20:53:03.563Z,22.10
2018-11-12T20:55:33.854Z,20.50
2018-11-12T20:58:04.051Z,17.50
2018-11-12T21:00:34.333Z,19.70
2018-11-12T21:03:04.630Z,16.30
2018-11-12T21:05:34.776Z,18.73
2018-11-12T21:08:04.975Z,20.93
2018-11-12T21:10:35.191Z,19.37
2018-11-12T21:13:05.425Z,18.60
2018-11-12T21:15:35.670Z,17.77
2018-11-12T21:18:06.093Z,19.03
2018-11-12T21:20:36.211Z,17.50
2018-11-12T21:23:06.906Z,19.50
2018-11-12T21:25:37.056Z,23.27
2018-11-12T21:28:07.337Z,20.80
2018-11-12T21:30:37.675Z,20.70
2018-11-12T21:33:07.902Z,21.20
2018-11-12T21:35:38.019Z,21.17
2018-11-12T21:38:08.254Z,20.90
2018-11-12T21:40:38.436Z,19.90
2018-11-12T21:43:08.682Z,18.50
2018-11-12T21:45:38.814Z,19.17
2018-11-12T21:48:09.031Z,19.37
2018-11-12T21:50:39.205Z,19.03
2018-11-12T21:53:09.572Z,18.67
2018-11-12T21:55:39.823Z,21.87
2018-11-12T21:58:10.166Z,19.63
2018-11-12T22:00:40.482Z,19.00
2018-11-12T22:03:10.893Z,19.63
2018-11-12T22:05:41.211Z,21.93
2018-11-12T22:08:14.087Z,21.53
2018-11-12T22:10:44.257Z,21.03
2018-11-12T22:13:14.469Z,20.33
2018-11-12T22:15:44.911Z,18.87
2018-11-12T22:18:15.030Z,19.47
2018-11-12T22:20:45.596Z,20.40
2018-11-12T22:23:15.803Z,21.60
2018-11-12T22:25:45.932Z,20.77
2018-11-12T22:28:16.150Z,21.20
2018-11-12T22:30:46.300Z,23.10
2018-11-12T22:33:16.534Z,19.83
2018-11-12T22:35:46.689Z,25.13
2018-11-12T22:38:16.960Z,22.23
2018-11-12T22:40:47.087Z,22.43
2018-11-12T22:43:17.209Z,22.53
2018-11-12T22:45:47.379Z,23.63
2018-11-12T22:48:17.647Z,24.70
2018-11-12T22:50:48.252Z,25.27
2018-11-12T22:53:18.631Z,24.00
2018-11-12T22:55:48.813Z,27.70
2018-11-12T22:58:18.987Z,26.60
2018-11-12T23:00:49.210Z,27.00
2018-11-12T23:03:19.427Z,27.93
2018-11-12T23:05:49.702Z,24.40
2018-11-12T23:08:19.950Z,25.57
2018-11-12T23:10:50.124Z,27.63
2018-11-12T23:13:20.329Z,25.57
2018-11-12T23:15:50.426Z,29.87
2018-11-12T23:18:20.545Z,26.77
2018-11-12T23:20:50.738Z,27.23
2018-11-12T23:23:20.871Z,26.00
2018-11-12T23:25:51.058Z,24.07
2018-11-12T23:28:21.384Z,27.60
2018-11-12T23:30:51.451Z,26.33
2018-11-12T23:33:21.679Z,27.00
2018-11-12T23:35:52.425Z,24.13
2018-11-12T23:38:22.639Z,26.50
2018-11-12T23:40:52.779Z,26.23
2018-11-12T23:43:22.956Z,24.93
2018-11-12T23:45:53.101Z,25.47
2018-11-12T23:48:23.316Z,22.80
2018-11-12T23:50:53.531Z,21.70
2018-11-12T23:53:23.684Z,24.20
2018-11-12T23:55:53.800Z,24.90
2018-11-12T23:58:23.938Z,24.20
